createdAt,value
2017-10-08T00:01:09.296Z,100412.52
2017-10-08T00:03:44.601Z,100420.37
2017-10-08T00:06:19.254Z,100416.70
2017-10-08T00:08:53.989Z,100421.53
2017-10-08T00:11:29.393Z,100425.30
2017-10-08T00:14:04.152Z,100429.28
2017-10-08T00:16:38.875Z,100431.62
2017-10-08T00:19:13.508Z,100431.13
2017-10-08T00:21:48.216Z,100428.72
2017-10-08T00:24:22.912Z,100428.27
2017-10-08T00:26:57.359Z,100434.11
2017-10-08T00:29:32.015Z,100441.09
2017-10-08T00:32:06.903Z,100440.52
2017-10-08T00:34:42.662Z,100439.57
2017-10-08T00:37:17.285Z,100431.91
2017-10-08T00:39:52.051Z,100434.19
2017-10-08T00:42:26.892Z,100441.52
2017-10-08T00:45:01.328Z,100440.87
2017-10-08T00:47:36.016Z,100432.61
2017-10-08T00:50:10.949Z,100433.35
2017-10-08T00:52:45.303Z,100437.19
2017-10-08T00:55:19.880Z,100432.69
2017-10-08T00:57:54.559Z,100439.41
2017-10-08T01:00:29.064Z,100433.27
2017-10-08T01:03:03.896Z,100444.08
2017-10-08T01:05:39.864Z,100437.59
2017-10-08T01:08:14.547Z,100449.27
2017-10-08T01:10:49.161Z,100444.80
2017-10-08T01:13:24.092Z,100447.70
2017-10-08T01:15:58.836Z,100442.45
2017-10-08T01:18:33.579Z,100446.31
2017-10-08T01:21:08.291Z,100451.70
2017-10-08T01:23:43.020Z,100454.27
2017-10-08T01:26:17.520Z,100445.44
2017-10-08T01:28:52.347Z,100452.14
2017-10-08T01:31:27.107Z,100444.53
2017-10-08T01:34:01.716Z,100445.73
2017-10-08T01:36:36.427Z,100447.17
2017-10-08T01:39:11.139Z,100447.65
2017-10-08T01:41:46.094Z,100442.23
2017-10-08T01:44:20.647Z,100438.69
2017-10-08T01:46:55.524Z,100436.13
2017-10-08T01:49:30.647Z,100437.64
2017-10-08T01:52:05.423Z,100445.59
2017-10-08T01:54:40.180Z,100449.80
2017-10-08T01:57:14.875Z,100448.73
2017-10-08T01:59:49.747Z,100451.28
2017-10-08T02:02:24.583Z,100455.83
2017-10-08T02:04:59.020Z,100453.07
2017-10-08T02:07:34.346Z,100454.56
2017-10-08T02:10:09.055Z,100462.65
2017-10-08T02:12:43.804Z,100460.87
2017-10-08T02:15:19.392Z,100464.16
2017-10-08T02:17:54.202Z,100461.83
2017-10-08T02:20:28.810Z,100465.87
2017-10-08T02:23:03.559Z,100467.14
2017-10-08T02:25:38.271Z,100471.86
2017-10-08T02:28:12.991Z,100471.48
2017-10-08T02:30:47.618Z,100465.88
2017-10-08T02:33:22.363Z,100472.67
2017-10-08T02:35:57.106Z,100478.52
2017-10-08T02:38:31.804Z,100478.98
2017-10-08T02:41:06.643Z,100484.21
2017-10-08T02:43:41.340Z,100477.61
2017-10-08T02:46:16.219Z,100483.71
2017-10-08T02:48:51.024Z,100491.59
2017-10-08T02:51:25.795Z,100490.45
2017-10-08T02:54:00.628Z,100503.33
2017-10-08T02:56:35.544Z,100494.94
2017-10-08T02:59:10.136Z,100505.89
2017-10-08T03:01:44.902Z,100508.71
2017-10-08T03:04:19.744Z,100513.83
2017-10-08T03:06:54.552Z,100509.36
2017-10-08T03:09:29.471Z,100512.63
2017-10-08T03:12:04.179Z,100518.70
2017-10-08T03:14:39.751Z,100511.92
2017-10-08T03:17:14.464Z,100518.83
2017-10-08T03:19:49.407Z,100521.45
2017-10-08T03:22:24.035Z,100524.64
2017-10-08T03:24:58.903Z,100531.28
2017-10-08T03:27:33.257Z,100532.53
2017-10-08T03:30:08.323Z,100540.53
2017-10-08T03:32:43.036Z,100535.02
2017-10-08T03:35:18.239Z,100537.72
2017-10-08T03:37:53.059Z,100547.25
2017-10-08T03:40:27.863Z,100543.89
2017-10-08T03:43:02.371Z,100542.91
2017-10-08T03:45:37.323Z,100541.16
2017-10-08T03:48:12.256Z,100539.95
2017-10-08T03:50:46.874Z,100542.98
2017-10-08T03:53:21.584Z,100550.47
2017-10-08T03:55:55.888Z,100556.23
2017-10-08T03:58:30.895Z,100557.88
2017-10-08T04:01:05.612Z,100557.18
2017-10-08T04:03:40.111Z,100558.42
2017-10-08T04:06:15.041Z,100559.45
2017-10-08T04:08:50.463Z,100559.23
2017-10-08T04:11:25.286Z,100564.73
2017-10-08T04:13:59.927Z,100562.06
2017-10-08T04:16:34.630Z,100568.79
2017-10-08T04:19:09.332Z,100567.29
2017-10-08T04:21:44.340Z,100571.56
2017-10-08T04:24:19.152Z,100575.02
2017-10-08T04:26:53.912Z,100577.11
2017-10-08T04:29:28.657Z,100576.56
2017-10-08T04:32:03.612Z,100569.34
2017-10-08T04:34:38.407Z,100571.97
2017-10-08T04:37:12.943Z,100576.17
2017-10-08T04:39:47.720Z,100581.90
2017-10-08T04:42:22.476Z,100594.45
2017-10-08T04:44:58.304Z,100594.53
2017-10-08T04:47:32.816Z,100591.94
2017-10-08T04:50:07.579Z,100593.84
2017-10-08T04:52:42.505Z,100601.50
2017-10-08T04:55:18.096Z,100597.53
2017-10-08T04:57:53.517Z,100595.70
2017-10-08T05:00:28.515Z,100596.72
2017-10-08T05:03:03.440Z,100602.86
2017-10-08T05:05:38.156Z,100607.38
2017-10-08T05:08:12.791Z,100611.44
2017-10-08T05:10:47.556Z,100615.88
2017-10-08T05:13:21.939Z,100617.78
2017-10-08T05:15:56.444Z,100623.11
2017-10-08T05:18:31.435Z,100629.69
2017-10-08T05:21:06.052Z,100623.87
2017-10-08T05:23:41.835Z,100631.98
2017-10-08T05:26:16.480Z,100633.73
2017-10-08T05:28:51.127Z,100646.99
2017-10-08T05:31:25.848Z,100644.25
2017-10-08T05:34:01.107Z,100648.47
2017-10-08T05:36:36.231Z,100657.38
2017-10-08T05:39:10.800Z,100666.06
2017-10-08T05:41:45.431Z,100668.82
2017-10-08T05:44:20.280Z,100671.89
2017-10-08T05:46:54.927Z,100679.38
2017-10-08T05:49:29.559Z,100687.24
2017-10-08T05:52:04.339Z,100703.14
2017-10-08T05:54:39.063Z,100706.95
2017-10-08T05:57:13.555Z,100704.95
2017-10-08T05:59:48.987Z,100709.47
2017-10-08T06:02:23.627Z,100716.15
2017-10-08T06:04:58.296Z,100720.86
2017-10-08T06:07:33.416Z,100723.21
2017-10-08T06:10:08.440Z,100728.05
2017-10-08T06:12:43.491Z,100733.10
2017-10-08T06:15:17.929Z,100733.33
2017-10-08T06:17:52.465Z,100742.36
2017-10-08T06:20:27.273Z,100748.17
2017-10-08T06:23:02.004Z,100755.86
2017-10-08T06:25:36.599Z,100758.62
2017-10-08T06:28:11.231Z,100757.02
2017-10-08T06:30:46.011Z,100764.39
2017-10-08T06:33:20.715Z,100766.61
2017-10-08T06:35:55.420Z,100771.95
2017-10-08T06:38:30.172Z,100775.70
2017-10-08T06:41:04.920Z,100780.17
2017-10-08T06:43:39.836Z,100779.24
2017-10-08T06:46:14.736Z,100778.63
2017-10-08T06:48:49.644Z,100779.44
2017-10-08T06:51:24.284Z,100786.86
2017-10-08T06:53:59.176Z,100787.20
2017-10-08T06:56:33.848Z,100783.36
2017-10-08T06:59:08.754Z,100791.86
2017-10-08T07:01:43.367Z,100798.95
2017-10-08T07:04:18.312Z,100792.61
2017-10-08T07:06:54.248Z,100796.03
2017-10-08T07:09:29.068Z,100808.95
2017-10-08T07:12:04.524Z,100809.22
2017-10-08T07:14:39.651Z,100812.30
2017-10-08T07:17:14.632Z,100822.92
2017-10-08T07:19:49.459Z,100820.47
2017-10-08T07:22:24.068Z,100826.02
2017-10-08T07:24:58.964Z,100833.16
2017-10-08T07:27:33.851Z,100831.61
2017-10-08T07:30:09.025Z,100832.81
2017-10-08T07:32:44.183Z,100836.09
2017-10-08T07:35:18.702Z,100833.68
2017-10-08T07:37:53.312Z,100841.13
2017-10-08T07:40:27.956Z,100836.06
2017-10-08T07:43:02.675Z,100847.15
2017-10-08T07:45:37.407Z,100853.29
2017-10-08T07:48:12.551Z,100851.33
2017-10-08T07:50:47.463Z,100860.62
2017-10-08T07:53:21.676Z,100862.30
2017-10-08T07:55:56.819Z,100858.72
2017-10-08T07:58:31.767Z,100870.27
2017-10-08T08:01:06.484Z,100877.92
2017-10-08T08:03:41.180Z,100875.98
2017-10-08T08:06:15.401Z,100877.92
2017-10-08T08:08:49.811Z,100884.39
2017-10-08T08:11:24.615Z,100893.22
2017-10-08T08:13:59.643Z,100882.45
2017-10-08T08:16:34.323Z,100892.81
2017-10-08T08:19:09.047Z,100891.31
2017-10-08T08:21:43.630Z,100895.31
2017-10-08T08:24:18.460Z,100902.26
2017-10-08T08:26:53.248Z,100899.11
2017-10-08T08:29:28.008Z,100911.31
2017-10-08T08:32:02.719Z,100910.83
2017-10-08T08:34:37.788Z,100913.30
2017-10-08T08:37:12.524Z,100913.43
2017-10-08T08:39:47.272Z,100909.83
2017-10-08T08:42:21.989Z,100919.22
2017-10-08T08:44:56.828Z,100926.55
2017-10-08T08:47:31.472Z,100923.77
2017-10-08T08:50:06.248Z,100929.95
2017-10-08T08:52:41.183Z,100930.68
2017-10-08T08:55:15.975Z,100926.25
2017-10-08T08:57:50.691Z,100937.23
2017-10-08T09:00:26.608Z,100942.66
2017-10-08T09:03:01.224Z,100943.62
2017-10-08T09:05:36.016Z,100947.73
2017-10-08T09:08:10.728Z,100953.13
2017-10-08T09:10:45.275Z,100954.53
2017-10-08T09:13:20.207Z,100958.66
2017-10-08T09:15:54.923Z,100962.30
2017-10-08T09:18:29.601Z,100965.80
2017-10-08T09:21:04.501Z,100966.09
2017-10-08T09:23:39.143Z,100973.16
2017-10-08T09:26:14.007Z,100987.47
2017-10-08T09:28:48.719Z,100983.02
2017-10-08T09:31:23.772Z,100988.99
2017-10-08T09:33:58.607Z,100987.65
2017-10-08T09:36:33.739Z,100996.80
2017-10-08T09:39:08.463Z,100999.80
2017-10-08T09:41:43.111Z,100994.16
2017-10-08T09:44:18.120Z,100997.28
2017-10-08T09:46:52.865Z,100997.67
2017-10-08T09:49:27.651Z,100994.94
2017-10-08T09:52:02.380Z,100996.94
2017-10-08T09:54:37.209Z,101005.96
2017-10-08T09:57:11.908Z,101005.48
2017-10-08T09:59:46.528Z,101009.56
2017-10-08T10:02:21.120Z,101013.53
2017-10-08T10:04:55.881Z,101013.48
2017-10-08T10:07:30.670Z,101016.51
2017-10-08T10:10:05.380Z,101022.55
2017-10-08T10:12:39.904Z,101021.64
2017-10-08T10:15:14.764Z,101022.65
2017-10-08T10:17:49.514Z,101025.20
2017-10-08T10:20:24.208Z,101031.48
2017-10-08T10:22:59.139Z,101030.63
2017-10-08T10:27:55.693Z,101046.63
2017-10-08T10:30:30.489Z,101049.81
2017-10-08T10:33:06.080Z,101039.80
2017-10-08T10:35:40.691Z,101049.86
2017-10-08T10:38:15.303Z,101056.72
2017-10-08T10:40:49.796Z,101054.13
2017-10-08T10:43:24.436Z,101058.84
2017-10-08T10:45:59.070Z,101067.75
2017-10-08T10:48:33.759Z,101063.35
2017-10-08T10:51:08.196Z,101065.78
2017-10-08T10:53:42.895Z,101073.78
2017-10-08T10:56:17.504Z,101071.93
2017-10-08T10:58:52.147Z,101077.98
2017-10-08T11:01:26.874Z,101084.53
2017-10-08T11:04:01.568Z,101085.81
2017-10-08T11:06:36.307Z,101086.59
2017-10-08T11:09:10.876Z,101092.94
2017-10-08T11:11:45.589Z,101092.47
2017-10-08T11:14:20.197Z,101086.58
2017-10-08T11:16:55.011Z,101086.09
2017-10-08T11:19:29.772Z,101087.44
2017-10-08T11:22:04.488Z,101085.22
2017-10-08T11:24:39.111Z,101083.53
2017-10-08T11:27:13.831Z,101099.48
2017-10-08T11:29:50.104Z,101099.02
2017-10-08T11:32:25.135Z,101088.67
2017-10-08T11:34:59.815Z,101094.02
2017-10-08T11:37:34.373Z,101090.03
2017-10-08T11:40:09.023Z,101096.08
2017-10-08T11:42:43.729Z,101085.04
2017-10-08T11:45:19.087Z,101094.39
2017-10-08T11:47:54.014Z,101095.44
2017-10-08T11:50:29.548Z,101101.80
2017-10-08T11:53:04.293Z,101095.54
2017-10-08T11:55:39.371Z,101091.35
2017-10-08T11:58:14.195Z,101085.31
2017-10-08T12:00:49.101Z,101097.61
2017-10-08T12:03:24.017Z,101098.61
2017-10-08T12:05:58.627Z,101092.83
2017-10-08T12:08:33.183Z,101091.52
2017-10-08T12:11:08.011Z,101098.77
2017-10-08T12:13:42.723Z,101094.59
2017-10-08T12:16:17.519Z,101095.91
2017-10-08T12:18:52.203Z,101099.44
2017-10-08T12:21:26.828Z,101097.45
2017-10-08T12:24:01.504Z,101101.80
2017-10-08T12:26:36.095Z,101103.22
2017-10-08T12:29:10.728Z,101105.76
2017-10-08T12:31:45.441Z,101101.49
2017-10-08T12:34:20.368Z,101107.26
2017-10-08T12:36:55.195Z,101114.21
2017-10-08T12:39:29.968Z,101108.41
2017-10-08T12:42:04.975Z,101107.27
2017-10-08T12:44:40.060Z,101101.72
2017-10-08T12:47:14.807Z,101104.81
2017-10-08T12:49:49.419Z,101104.75
2017-10-08T12:52:24.067Z,101113.22
2017-10-08T12:54:58.936Z,101116.34
2017-10-08T12:57:33.576Z,101112.70
2017-10-08T13:00:08.280Z,101109.92
2017-10-08T13:02:42.911Z,101114.98
2017-10-08T13:05:18.408Z,101113.70
2017-10-08T13:07:53.560Z,101114.80
2017-10-08T13:10:28.294Z,101139.73
2017-10-08T13:13:03.091Z,101146.75
2017-10-08T13:15:37.822Z,101155.48
2017-10-08T13:18:12.636Z,101159.66
2017-10-08T13:20:47.413Z,101157.79
2017-10-08T13:23:22.235Z,101149.85
2017-10-08T13:25:57.063Z,101153.88
2017-10-08T13:28:31.620Z,101157.89
2017-10-08T13:31:06.181Z,101154.58
2017-10-08T13:33:40.583Z,101156.87
2017-10-08T13:36:15.684Z,101156.52
2017-10-08T13:38:50.482Z,101155.41
2017-10-08T13:41:25.288Z,101159.02
2017-10-08T13:44:00.035Z,101161.52
2017-10-08T13:46:34.820Z,101159.16
2017-10-08T13:49:09.544Z,101160.11
2017-10-08T13:51:44.146Z,101160.95
2017-10-08T13:54:18.739Z,101156.19
2017-10-08T13:56:53.560Z,101158.46
2017-10-08T13:59:28.584Z,101160.38
2017-10-08T14:02:03.320Z,101150.88
2017-10-08T14:04:38.148Z,101151.84
2017-10-08T14:07:12.948Z,101154.24
2017-10-08T14:09:47.720Z,101147.61
2017-10-08T14:12:22.431Z,101144.94
2017-10-08T14:14:58.101Z,101147.03
2017-10-08T14:17:32.788Z,101151.11
2017-10-08T14:20:07.516Z,101144.45
2017-10-08T14:22:42.276Z,101157.62
2017-10-08T14:25:17.443Z,101167.59
2017-10-08T14:27:52.748Z,101163.01
2017-10-08T14:30:27.499Z,101167.87
2017-10-08T14:33:02.100Z,101168.87
2017-10-08T14:35:36.878Z,101166.63
2017-10-08T14:38:11.464Z,101169.04
2017-10-08T14:40:47.179Z,101175.08
2017-10-08T14:43:21.791Z,101180.38
2017-10-08T14:45:56.644Z,101176.25
2017-10-08T14:48:31.423Z,101176.00
2017-10-08T14:51:06.155Z,101182.09
2017-10-08T14:53:41.036Z,101181.23
2017-10-08T14:56:15.580Z,101184.41
2017-10-08T14:58:50.296Z,101187.89
2017-10-08T15:01:24.734Z,101186.18
2017-10-08T15:03:59.392Z,101194.00
2017-10-08T15:06:34.299Z,101184.94
2017-10-08T15:09:08.866Z,101190.45
2017-10-08T15:11:44.015Z,101188.12
2017-10-08T15:14:18.996Z,101185.91
2017-10-08T15:16:53.695Z,101179.69
2017-10-08T15:19:28.438Z,101189.73
2017-10-08T15:22:03.079Z,101189.81
2017-10-08T15:24:37.779Z,101189.83
2017-10-08T15:27:12.528Z,101193.60
2017-10-08T15:29:47.259Z,101192.16
2017-10-08T15:32:22.077Z,101198.20
2017-10-08T15:34:57.655Z,101199.39
2017-10-08T15:37:32.564Z,101201.55
2017-10-08T15:40:07.274Z,101208.60
2017-10-08T15:42:42.023Z,101209.06
2017-10-08T15:45:16.796Z,101209.30
2017-10-08T15:47:51.272Z,101206.36
2017-10-08T15:50:25.492Z,101211.55
2017-10-08T15:53:00.603Z,101212.34
2017-10-08T15:55:35.260Z,101220.38
2017-10-08T15:58:09.662Z,101217.47
2017-10-08T16:00:44.719Z,101223.02
2017-10-08T16:03:19.548Z,101226.33
2017-10-08T16:05:54.543Z,101241.85
2017-10-08T16:08:29.304Z,101237.48
2017-10-08T16:11:04.028Z,101236.41
2017-10-08T16:13:39.049Z,101239.10
2017-10-08T16:16:13.839Z,101236.41
2017-10-08T16:18:48.468Z,101236.05
2017-10-08T16:21:23.248Z,101242.07
2017-10-08T16:23:58.799Z,101248.69
2017-10-08T16:26:33.423Z,101248.30
2017-10-08T16:29:08.152Z,101246.94
2017-10-08T16:31:43.264Z,101247.27
2017-10-08T16:34:18.306Z,101248.45
2017-10-08T16:36:53.103Z,101247.97
2017-10-08T16:39:27.703Z,101251.63
2017-10-08T16:42:02.216Z,101260.09
2017-10-08T16:44:36.752Z,101258.73
2017-10-08T16:47:11.647Z,101266.54
2017-10-08T16:49:46.403Z,101275.57
2017-10-08T16:52:21.139Z,101276.86
2017-10-08T16:54:55.595Z,101284.47
2017-10-08T16:57:30.283Z,101289.73
2017-10-08T17:00:04.659Z,101292.13
2017-10-08T17:02:39.578Z,101289.66
2017-10-08T17:05:14.017Z,101294.90
2017-10-08T17:07:49.320Z,101298.75
2017-10-08T17:10:23.935Z,101301.77
2017-10-08T17:12:58.763Z,101308.34
2017-10-08T17:15:33.367Z,101308.34
2017-10-08T17:18:08.353Z,101314.02
2017-10-08T17:20:43.332Z,101312.63
2017-10-08T17:23:17.768Z,101314.20
2017-10-08T17:25:52.459Z,101317.27
2017-10-08T17:28:27.075Z,101320.65
2017-10-08T17:31:02.096Z,101324.98
2017-10-08T17:33:36.920Z,101325.39
2017-10-08T17:36:11.736Z,101329.94
2017-10-08T17:38:47.559Z,101333.30
2017-10-08T17:41:22.147Z,101333.84
2017-10-08T17:43:56.972Z,101343.52
2017-10-08T17:46:31.530Z,101341.10
2017-10-08T17:49:08.372Z,101347.83
2017-10-08T17:51:42.963Z,101346.29
2017-10-08T17:54:17.788Z,101342.83
2017-10-08T17:56:52.291Z,101354.64
2017-10-08T17:59:27.039Z,101358.44
2017-10-08T18:02:01.359Z,101363.63
2017-10-08T18:04:36.015Z,101364.02
2017-10-08T18:07:10.870Z,101371.81
2017-10-08T18:09:45.620Z,101371.45
2017-10-08T18:12:20.180Z,101376.34
2017-10-08T18:14:56.836Z,101377.00
2017-10-08T18:17:31.283Z,101376.31
2017-10-08T18:20:06.107Z,101377.14
2017-10-08T18:22:40.796Z,101381.31
2017-10-08T18:25:15.599Z,101383.08
2017-10-08T18:27:50.235Z,101388.66
2017-10-08T18:30:24.636Z,101396.26
2017-10-08T18:32:59.410Z,101397.67
2017-10-08T18:35:34.171Z,101403.39
2017-10-08T18:38:09.567Z,101404.47
2017-10-08T18:40:44.585Z,101403.88
2017-10-08T18:43:19.360Z,101411.39
2017-10-08T18:45:54.093Z,101409.53
2017-10-08T18:48:28.840Z,101406.19
2017-10-08T18:51:03.454Z,101412.02
2017-10-08T18:53:38.164Z,101417.93
2017-10-08T18:56:12.852Z,101423.00
2017-10-08T18:58:47.599Z,101422.92
2017-10-08T19:01:22.451Z,101421.56
2017-10-08T19:03:57.357Z,101425.08
2017-10-08T19:06:33.148Z,101435.16
2017-10-08T19:09:07.759Z,101435.53
2017-10-08T19:11:42.463Z,101440.27
2017-10-08T19:14:17.143Z,101437.66
2017-10-08T19:16:51.846Z,101435.56
2017-10-08T19:19:26.671Z,101437.82
2017-10-08T19:22:01.392Z,101436.67
2017-10-08T19:24:36.032Z,101435.80
2017-10-08T19:27:14.296Z,101437.72
2017-10-08T19:29:50.063Z,101441.30
2017-10-08T19:32:24.682Z,101444.95
2017-10-08T19:34:59.612Z,101438.55
2017-10-08T19:37:34.448Z,101441.82
2017-10-08T19:40:09.358Z,101441.05
2017-10-08T19:42:44.231Z,101441.77
2017-10-08T19:45:19.482Z,101447.09
2017-10-08T19:47:54.860Z,101449.79
2017-10-08T19:50:30.490Z,101454.08
2017-10-08T19:53:05.291Z,101456.69
2017-10-08T19:55:39.815Z,101461.14
2017-10-08T19:58:14.543Z,101458.31
2017-10-08T20:00:49.391Z,101462.80
2017-10-08T20:03:24.204Z,101462.41
2017-10-08T20:05:58.637Z,101461.63
2017-10-08T20:08:34.799Z,101463.20
2017-10-08T20:11:09.401Z,101468.97
2017-10-08T20:13:44.235Z,101459.91
2017-10-08T20:16:19.052Z,101460.02
2017-10-08T20:18:53.776Z,101462.32
2017-10-08T20:21:28.619Z,101467.66
2017-10-08T20:24:03.456Z,101462.09
2017-10-08T20:26:38.168Z,101469.83
2017-10-08T20:29:12.782Z,101476.97
2017-10-08T20:31:47.697Z,101475.73
2017-10-08T20:34:23.384Z,101467.66
2017-10-08T20:36:57.919Z,101473.56
2017-10-08T20:39:32.799Z,101468.53
2017-10-08T20:42:07.532Z,101475.34
2017-10-08T20:44:42.315Z,101479.59
2017-10-08T20:47:16.986Z,101484.34
2017-10-08T20:49:51.999Z,101489.12
2017-10-08T20:52:26.975Z,101487.59
2017-10-08T20:55:01.639Z,101490.88
2017-10-08T20:57:36.523Z,101498.28
2017-10-08T21:00:11.255Z,101499.44
2017-10-08T21:02:46.179Z,101498.94
2017-10-08T21:05:20.758Z,101497.28
2017-10-08T21:07:55.458Z,101493.82
2017-10-08T21:10:30.636Z,101494.40
2017-10-08T21:13:05.491Z,101500.04
2017-10-08T21:15:40.024Z,101497.84
2017-10-08T21:18:14.851Z,101498.25
2017-10-08T21:20:49.604Z,101499.52
2017-10-08T21:23:24.311Z,101494.20
2017-10-08T21:25:58.720Z,101498.80
2017-10-08T21:28:33.515Z,101497.97
2017-10-08T21:31:08.103Z,101498.91
2017-10-08T21:33:42.752Z,101496.16
2017-10-08T21:36:18.472Z,101497.13
2017-10-08T21:38:53.084Z,101495.83
2017-10-08T21:41:27.775Z,101490.52
2017-10-08T21:44:02.576Z,101487.88
2017-10-08T21:46:37.264Z,101482.58
2017-10-08T21:49:12.017Z,101484.34
2017-10-08T21:51:46.592Z,101488.96
2017-10-08T21:54:21.600Z,101481.40
2017-10-08T21:56:56.071Z,101482.44
2017-10-08T21:59:30.803Z,101482.50
2017-10-08T22:02:05.675Z,101478.81
2017-10-08T22:04:40.485Z,101487.47
2017-10-08T22:07:15.135Z,101483.15
2017-10-08T22:09:50.148Z,101488.03
2017-10-08T22:12:24.748Z,101490.40
2017-10-08T22:14:59.800Z,101494.44
2017-10-08T22:17:34.576Z,101489.72
2017-10-08T22:20:09.292Z,101492.47
2017-10-08T22:22:45.028Z,101483.92
2017-10-08T22:25:19.635Z,101486.27
2017-10-08T22:27:54.568Z,101482.98
2017-10-08T22:30:29.016Z,101486.12
2017-10-08T22:33:03.749Z,101485.44
2017-10-08T22:35:38.483Z,101487.11
2017-10-08T22:38:13.248Z,101481.39
2017-10-08T22:40:48.011Z,101480.16
2017-10-08T22:43:22.861Z,101484.25
2017-10-08T22:45:57.236Z,101484.31
2017-10-08T22:48:32.151Z,101481.50
2017-10-08T22:51:06.868Z,101479.66
2017-10-08T22:53:41.528Z,101485.33
2017-10-08T22:56:16.342Z,101481.87
2017-10-08T22:58:51.748Z,101488.05
2017-10-08T23:01:26.363Z,101488.90
2017-10-08T23:04:00.988Z,101486.27
2017-10-08T23:06:35.620Z,101483.40
2017-10-08T23:09:10.249Z,101485.82
2017-10-08T23:11:45.076Z,101487.69
2017-10-08T23:14:19.599Z,101490.97
2017-10-08T23:16:54.327Z,101482.00
2017-10-08T23:19:29.060Z,101493.11
2017-10-08T23:22:03.710Z,101489.36
2017-10-08T23:24:38.360Z,101491.45
2017-10-08T23:27:13.178Z,101496.95
2017-10-08T23:29:47.972Z,101489.88
2017-10-08T23:32:22.710Z,101494.36
2017-10-08T23:34:57.680Z,101496.17
2017-10-08T23:37:32.379Z,101488.31
2017-10-08T23:40:07.183Z,101491.19
2017-10-08T23:42:41.317Z,101489.41
2017-10-08T23:45:17.064Z,101491.08
2017-10-08T23:47:52.059Z,101493.16
2017-10-08T23:50:26.723Z,101492.98
2017-10-08T23:53:01.408Z,101499.52
2017-10-08T23:55:36.152Z,101489.66
2017-10-08T23:58:10.888Z,101494.87
